Time;durP1;ratioP1;P1;durP2;ratioP2;P2;SDS_P1;SDS_P2;PMS_P1;PMS_P2;Temp;Humidity;BMP_temperature;BMP_pressure;BME280_temperature;BME280_humidity;BME280_pressure;Samples;Min_cycle;Max_cycle;Signal;HPM_P1;HPM_P2
2022/08/03 00:00:54;;;;;;;7.33;4.00;;;22.90;68.20;;;;;;5014452;28;20782;-45
2022/08/03 00:03:21;;;;;;;5.40;3.47;;;22.90;68.20;;;;;;5014722;28;20504;-46
2022/08/03 00:05:48;;;;;;;4.90;3.83;;;22.90;68.00;;;;;;5014778;28;20487;-47
2022/08/03 00:08:14;;;;;;;9.87;4.30;;;23.00;68.10;;;;;;5014505;28;20478;-46
2022/08/03 00:10:41;;;;;;;7.70;4.07;;;22.90;68.10;;;;;;5014157;28;20446;-46
2022/08/03 00:13:07;;;;;;;6.20;3.77;;;23.00;68.50;;;;;;5014586;28;20497;-46
2022/08/03 00:15:34;;;;;;;5.37;4.10;;;23.00;68.70;;;;;;5014458;28;20437;-46
2022/08/03 00:18:02;;;;;;;7.60;4.30;;;22.90;68.70;;;;;;5014335;28;20461;-47
2022/08/03 00:20:28;;;;;;;5.77;3.47;;;22.90;68.80;;;;;;5014265;28;20431;-46
2022/08/03 00:22:55;;;;;;;4.57;3.37;;;22.90;68.90;;;;;;5014448;28;20437;-46
2022/08/03 00:25:21;;;;;;;5.20;3.57;;;22.90;68.90;;;;;;5014189;28;20485;-47
2022/08/03 00:27:48;;;;;;;6.77;4.00;;;22.90;68.80;;;;;;4996524;28;20470;-46
2022/08/03 00:30:15;;;;;;;5.90;3.97;;;23.00;68.90;;;;;;5013857;28;20961;-46
2022/08/03 00:32:41;;;;;;;5.67;3.70;;;23.00;68.90;;;;;;5014698;28;20429;-46
2022/08/03 00:35:09;;;;;;;6.43;3.10;;;23.10;69.10;;;;;;5014320;28;20437;-46
2022/08/03 00:37:36;;;;;;;4.77;3.20;;;23.10;69.20;;;;;;5014076;28;20448;-46
2022/08/03 00:40:04;;;;;;;5.27;3.40;;;23.00;69.30;;;;;;5013708;28;20440;-46
2022/08/03 00:42:30;;;;;;;5.17;3.83;;;23.00;69.50;;;;;;5014138;28;20986;-46
2022/08/03 00:44:57;;;;;;;10.07;4.10;;;22.60;69.20;;;;;;5014042;28;20476;-46
2022/08/03 00:47:23;;;;;;;5.93;4.30;;;22.90;69.80;;;;;;5013060;28;20449;-46
2022/08/03 00:49:50;;;;;;;6.43;3.40;;;22.90;70.00;;;;;;5013721;28;20434;-46
2022/08/03 00:52:18;;;;;;;8.33;3.80;;;22.90;70.10;;;;;;5014073;28;20444;-46
2022/08/03 00:54:44;;;;;;;5.10;3.60;;;22.90;70.30;;;;;;5013713;28;20533;-46
2022/08/03 00:57:11;;;;;;;6.03;3.53;;;22.90;70.50;;;;;;5013891;28;20479;-45
2022/08/03 00:59:38;;;;;;;5.27;3.13;;;22.80;70.60;;;;;;5013603;28;20464;-45
2022/08/03 01:02:05;;;;;;;5.20;3.80;;;22.80;70.80;;;;;;5014016;28;20966;-46
2022/08/03 01:04:32;;;;;;;5.53;3.97;;;22.80;71.00;;;;;;5013818;28;20925;-46
2022/08/03 01:07:06;;;;;;;8.10;3.73;;;22.70;71.10;;;;;;5013524;28;20491;-46
2022/08/03 01:09:43;;;;;;;5.77;3.80;;;22.40;71.00;;;;;;4995511;28;20452;-47
2022/08/03 01:12:18;;;;;;;6.37;4.30;;;22.70;71.60;;;;;;4995908;28;20514;-46
2022/08/03 01:14:54;;;;;;;5.10;4.37;;;22.70;71.70;;;;;;5013405;28;20441;-46
2022/08/03 01:17:28;;;;;;;8.03;4.10;;;22.70;71.90;;;;;;5013297;28;20448;-46
2022/08/03 01:20:00;;;;;;;7.90;4.17;;;22.30;71.80;;;;;;5012784;28;20539;-46
2022/08/03 01:22:49;;;;;;;7.27;4.27;;;22.80;72.40;;;;;;5013220;28;20432;-46
2022/08/03 01:25:28;;;;;;;6.80;3.80;;;22.60;72.20;;;;;;5013059;28;20480;-45
2022/08/03 01:28:07;;;;;;;5.10;4.10;;;22.70;72.20;;;;;;5013094;28;20459;-46
2022/08/03 01:30:40;;;;;;;7.20;3.80;;;22.70;72.20;;;;;;5013308;28;20441;-45
2022/08/03 01:33:12;;;;;;;4.10;3.10;;;22.70;72.20;;;;;;5012986;28;20435;-46
2022/08/03 01:35:44;;;;;;;6.63;3.63;;;22.60;72.00;;;;;;5013212;28;20443;-47
2022/08/03 01:38:13;;;;;;;3.93;3.57;;;22.70;72.20;;;;;;5012841;28;20456;-46
2022/08/03 01:40:43;;;;;;;5.10;3.50;;;22.60;72.00;;;;;;5012466;28;20816;-46
2022/08/03 01:43:15;;;;;;;6.40;3.90;;;22.70;72.00;;;;;;5012882;28;20571;-45
2022/08/03 01:45:44;;;;;;;5.20;3.90;;;22.70;72.00;;;;;;5013043;28;20491;-46
2022/08/03 01:48:12;;;;;;;4.87;3.50;;;22.80;72.20;;;;;;5012808;28;20469;-47
2022/08/03 01:50:40;;;;;;;5.47;3.73;;;22.70;72.00;;;;;;5012920;28;20803;-46
2022/08/03 01:53:08;;;;;;;5.50;3.63;;;22.70;71.90;;;;;;5012846;28;20434;-46
2022/08/03 01:55:37;;;;;;;7.17;3.40;;;22.80;72.00;;;;;;5012979;28;20427;-46
2022/08/03 01:58:06;;;;;;;5.50;3.40;;;22.80;72.40;;;;;;4995594;28;20468;-45
2022/08/03 02:00:35;;;;;;;9.57;3.40;;;22.70;72.50;;;;;;5012625;28;20452;-45
2022/08/03 02:03:05;;;;;;;6.70;4.27;;;22.70;72.50;;;;;;4995033;28;20459;-46
2022/08/03 02:05:33;;;;;;;9.20;3.80;;;22.70;72.40;;;;;;5012550;28;20479;-46
2022/08/03 02:08:01;;;;;;;4.13;3.30;;;22.80;72.40;;;;;;5012235;28;20468;-46
2022/08/03 02:10:29;;;;;;;5.87;4.00;;;22.80;72.50;;;;;;5012143;28;20437;-45
2022/08/03 02:12:58;;;;;;;6.77;3.93;;;22.70;72.50;;;;;;5012554;28;20495;-46
2022/08/03 02:15:26;;;;;;;11.00;4.87;;;22.70;72.70;;;;;;5012625;28;21010;-47
2022/08/03 02:17:54;;;;;;;5.53;3.70;;;22.70;72.80;;;;;;5012413;28;20488;-46
2022/08/03 02:20:23;;;;;;;6.73;4.07;;;22.70;72.50;;;;;;5010654;28;20441;-45
2022/08/03 02:22:50;;;;;;;3.23;2.93;;;22.70;72.30;;;;;;5012368;28;20776;-46
2022/08/03 02:25:17;;;;;;;4.53;3.83;;;22.80;72.40;;;;;;5012105;28;20520;-46
2022/08/03 02:27:51;;;;;;;6.40;4.30;;;22.80;72.50;;;;;;4994574;28;20467;-45
2022/08/03 02:30:19;;;;;;;7.07;3.43;;;22.80;72.80;;;;;;5011927;28;20544;-46
2022/08/03 02:32:51;;;;;;;7.47;3.70;;;22.70;72.80;;;;;;5012748;28;20441;-45
2022/08/03 02:35:21;;;;;;;5.53;3.73;;;22.70;72.90;;;;;;5012399;28;21011;-46
2022/08/03 02:37:51;;;;;;;6.50;3.80;;;22.70;73.00;;;;;;5012079;28;20459;-45
2022/08/03 02:40:20;;;;;;;4.87;4.20;;;22.70;73.10;;;;;;5011786;28;20441;-45
2022/08/03 02:42:49;;;;;;;7.20;4.20;;;22.70;73.10;;;;;;5012082;28;20436;-46
2022/08/03 02:45:18;;;;;;;11.20;4.10;;;22.70;73.20;;;;;;5011864;28;20441;-46
2022/08/03 02:47:47;;;;;;;4.83;3.87;;;22.60;73.10;;;;;;5011993;28;20467;-46
2022/08/03 02:50:17;;;;;;;8.90;3.70;;;22.30;72.70;;;;;;5011727;28;20511;-45
2022/08/03 02:52:46;;;;;;;7.17;3.90;;;22.70;73.30;;;;;;5011999;28;20805;-45
2022/08/03 02:55:15;;;;;;;5.93;3.83;;;22.50;73.10;;;;;;5012005;28;20841;-46
2022/08/03 02:57:44;;;;;;;6.87;3.83;;;22.60;74.10;;;;;;5011910;28;20462;-46
2022/08/03 03:00:12;;;;;;;4.60;3.70;;;22.70;73.30;;;;;;4993687;28;20460;-46
2022/08/03 03:02:41;;;;;;;11.03;4.43;;;22.60;73.20;;;;;;5012004;28;20439;-46
2022/08/03 03:05:09;;;;;;;5.73;4.00;;;22.20;72.90;;;;;;4994201;28;20451;-46
2022/08/03 03:07:38;;;;;;;8.47;4.73;;;22.60;73.20;;;;;;5011582;28;20531;-45
2022/08/03 03:10:06;;;;;;;6.43;3.80;;;22.60;72.80;;;;;;5011482;28;20488;-46
2022/08/03 03:12:36;;;;;;;7.33;4.00;;;22.60;72.40;;;;;;5015216;28;20443;-45
2022/08/03 03:15:05;;;;;;;7.57;4.07;;;22.60;72.10;;;;;;5015531;28;20431;-47
2022/08/03 03:17:32;;;;;;;5.97;4.60;;;22.60;71.90;;;;;;5015456;28;20455;-46
2022/08/03 03:20:00;;;;;;;7.13;4.43;;;22.60;71.70;;;;;;5015243;28;20432;-47
2022/08/03 03:22:27;;;;;;;10.17;4.30;;;22.60;71.60;;;;;;5015387;28;20432;-46
2022/08/03 03:24:55;;;;;;;5.17;3.80;;;22.60;71.90;;;;;;5015259;28;20430;-46
2022/08/03 03:27:22;;;;;;;9.87;4.90;;;22.60;72.10;;;;;;5015627;28;20494;-46
2022/08/03 03:29:50;;;;;;;11.53;4.40;;;22.60;72.20;;;;;;5015116;28;20643;-46
2022/08/03 03:32:17;;;;;;;6.00;3.93;;;22.50;72.30;;;;;;5015232;28;20437;-46
2022/08/03 03:34:45;;;;;;;8.43;4.67;;;22.50;72.50;;;;;;5015189;28;20435;-46
2022/08/03 03:37:11;;;;;;;6.57;4.63;;;22.50;72.70;;;;;;5014846;28;20455;-46
2022/08/03 03:39:38;;;;;;;8.90;5.07;;;22.00;72.40;;;;;;5014828;28;20455;-46
2022/08/03 03:42:05;;;;;;;6.37;4.10;;;22.40;73.30;;;;;;5015010;28;20436;-47
2022/08/03 03:44:32;;;;;;;7.20;4.33;;;22.40;73.60;;;;;;5015268;28;20526;-46
2022/08/03 03:47:00;;;;;;;6.73;4.97;;;22.40;73.70;;;;;;5014547;28;20535;-46
2022/08/03 03:49:27;;;;;;;6.80;4.50;;;22.30;73.90;;;;;;5014426;28;20788;-46
2022/08/03 03:51:54;;;;;;;5.57;4.10;;;22.30;74.20;;;;;;5013335;28;20451;-46
2022/08/03 03:54:20;;;;;;;6.00;3.80;;;22.30;74.40;;;;;;5014533;28;20440;-46
2022/08/03 03:56:47;;;;;;;7.43;4.60;;;22.30;74.50;;;;;;5014747;28;20467;-46
2022/08/03 03:59:14;;;;;;;8.00;5.20;;;22.20;74.60;;;;;;4996643;28;20448;-46
2022/08/03 04:01:40;;;;;;;7.37;5.23;;;22.30;75.00;;;;;;5014787;28;20812;-46
2022/08/03 04:12:24;;;;;;;9.47;5.00;;;22.10;75.60;;;;;;5014775;28;20433;-47
2022/08/03 04:14:54;;;;;;;9.37;5.30;;;22.20;75.90;;;;;;5014375;28;20822;-47
2022/08/03 04:17:25;;;;;;;10.13;5.13;;;22.20;76.10;;;;;;5014563;28;20458;-47
2022/08/03 04:19:54;;;;;;;7.40;5.60;;;22.20;76.10;;;;;;5014283;28;20871;-46
2022/08/03 04:22:25;;;;;;;9.23;4.97;;;22.20;76.00;;;;;;5014060;28;20962;-46
2022/08/03 04:24:57;;;;;;;11.77;5.40;;;22.30;76.20;;;;;;5014504;28;20436;-46
2022/08/03 04:27:27;;;;;;;9.30;5.67;;;22.40;77.00;;;;;;5013996;28;20483;-45
2022/08/03 04:29:56;;;;;;;8.37;5.73;;;22.50;76.00;;;;;;5013755;28;20437;-46
2022/08/03 04:32:27;;;;;;;9.73;5.20;;;22.50;75.80;;;;;;5014178;28;20467;-46
2022/08/03 04:34:55;;;;;;;14.30;6.20;;;22.80;75.70;;;;;;5013929;28;20444;-46
2022/08/03 04:37:27;;;;;;;14.07;6.90;;;22.90;75.30;;;;;;5013797;28;20467;-46
2022/08/03 04:39:58;;;;;;;13.60;5.70;;;23.00;74.70;;;;;;5013635;28;20933;-47
2022/08/03 04:42:26;;;;;;;8.47;5.60;;;23.20;74.10;;;;;;5013881;28;20449;-46
2022/08/03 04:44:55;;;;;;;9.83;5.30;;;23.30;73.50;;;;;;5013804;28;20441;-46
2022/08/03 04:47:22;;;;;;;8.63;5.00;;;23.40;72.80;;;;;;5013797;28;20494;-47
2022/08/03 04:49:49;;;;;;;7.50;5.17;;;23.50;72.20;;;;;;5013213;28;20441;-47
2022/08/03 04:52:17;;;;;;;10.23;4.80;;;23.60;71.50;;;;;;5013734;28;20446;-47
2022/08/03 04:54:45;;;;;;;8.50;4.47;;;23.70;71.20;;;;;;5013544;28;20442;-47
2022/08/03 04:57:12;;;;;;;8.90;5.70;;;23.80;70.60;;;;;;5013720;28;20446;-46
2022/08/03 04:59:39;;;;;;;6.77;5.40;;;23.90;69.90;;;;;;5013199;28;20533;-46
2022/08/03 05:02:05;;;;;;;7.00;4.10;;;24.00;69.70;;;;;;5013630;28;20792;-47
2022/08/03 05:04:32;;;;;;;5.37;4.77;;;24.10;69.40;;;;;;5013580;28;20439;-46
2022/08/03 05:06:59;;;;;;;7.07;4.60;;;24.10;68.80;;;;;;5012907;28;20474;-46
2022/08/03 05:09:26;;;;;;;4.77;4.17;;;24.20;68.60;;;;;;5012867;28;20859;-47
2022/08/03 05:11:54;;;;;;;8.90;5.20;;;24.30;68.30;;;;;;5013273;28;20537;-46
2022/08/03 05:14:20;;;;;;;8.87;4.97;;;24.30;67.80;;;;;;5013224;28;20458;-47
2022/08/03 05:16:47;;;;;;;5.93;4.20;;;24.40;67.30;;;;;;5013148;28;20435;-46
2022/08/03 05:19:14;;;;;;;9.93;4.70;;;24.50;67.10;;;;;;5013578;28;20454;-46
2022/08/03 05:21:40;;;;;;;5.33;4.23;;;24.50;66.70;;;;;;5013504;28;20432;-47
2022/08/03 05:24:07;;;;;;;5.47;4.40;;;24.60;66.50;;;;;;5014309;28;20439;-46
2022/08/03 05:26:35;;;;;;;7.70;5.37;;;24.70;66.20;;;;;;5014160;28;20588;-46
2022/08/03 05:29:01;;;;;;;6.93;5.50;;;24.80;65.90;;;;;;5013235;28;20455;-46
2022/08/03 05:31:28;;;;;;;9.50;5.40;;;24.80;65.60;;;;;;4995965;28;20976;-45
2022/08/03 05:33:56;;;;;;;8.77;5.37;;;24.90;65.20;;;;;;5013058;28;20440;-46
2022/08/03 05:36:23;;;;;;;9.87;5.40;;;25.00;64.90;;;;;;5013837;28;20839;-46
2022/08/03 05:38:49;;;;;;;12.70;4.60;;;25.00;64.60;;;;;;5013031;28;20455;-46
2022/08/03 05:41:16;;;;;;;7.40;4.30;;;25.20;64.20;;;;;;5013654;28;20436;-46
2022/08/03 05:43:44;;;;;;;8.13;4.43;;;25.20;63.90;;;;;;5013466;28;20770;-45
2022/08/03 05:46:11;;;;;;;7.53;4.13;;;25.30;63.60;;;;;;5013168;28;20432;-46
2022/08/03 05:48:37;;;;;;;16.10;5.00;;;25.30;63.10;;;;;;5012848;28;20456;-46
2022/08/03 05:51:06;;;;;;;12.13;4.20;;;25.40;62.40;;;;;;5013597;28;20436;-45
2022/08/03 05:53:33;;;;;;;7.53;4.10;;;25.40;61.70;;;;;;5013305;28;20490;-46
2022/08/03 05:55:59;;;;;;;9.50;4.70;;;25.50;61.70;;;;;;5012985;28;20503;-46
2022/08/03 05:58:26;;;;;;;9.07;4.23;;;25.60;61.50;;;;;;5012637;28;20455;-46
2022/08/03 06:00:54;;;;;;;9.20;4.97;;;25.70;61.10;;;;;;5013531;28;20571;-46
2022/08/03 06:03:21;;;;;;;11.43;3.80;;;25.80;60.70;;;;;;5012647;28;20442;-46
2022/08/03 06:05:47;;;;;;;5.40;3.83;;;25.90;60.30;;;;;;5013032;28;20444;-46
2022/08/03 06:08:14;;;;;;;8.33;3.30;;;26.00;60.30;;;;;;5012272;28;20810;-47
2022/08/03 06:10:40;;;;;;;5.73;4.10;;;26.10;59.80;;;;;;5012332;28;20432;-47
2022/08/03 06:13:07;;;;;;;9.83;3.90;;;26.10;59.40;;;;;;5012681;28;20773;-47
2022/08/03 06:15:34;;;;;;;8.33;4.03;;;26.20;59.20;;;;;;5012718;28;20805;-46
2022/08/03 06:18:02;;;;;;;4.93;3.67;;;26.20;58.60;;;;;;5012533;28;20838;-46
2022/08/03 06:20:29;;;;;;;9.67;4.57;;;26.30;58.20;;;;;;5011888;28;20436;-46
2022/08/03 06:22:55;;;;;;;6.40;3.20;;;26.40;58.10;;;;;;5011445;28;20454;-47
2022/08/03 06:25:22;;;;;;;4.93;3.53;;;26.50;57.90;;;;;;5012391;28;20440;-46
2022/08/03 06:27:49;;;;;;;8.60;3.20;;;26.50;57.80;;;;;;5012423;28;20484;-46
2022/08/03 06:30:16;;;;;;;5.73;3.60;;;26.60;57.80;;;;;;5011874;28;20794;-45
2022/08/03 06:32:43;;;;;;;6.27;3.53;;;26.60;57.60;;;;;;5012073;28;20444;-45
2022/08/03 06:35:11;;;;;;;5.37;3.77;;;26.70;57.40;;;;;;5010456;28;20466;-47
2022/08/03 06:37:44;;;;;;;10.67;5.70;;;26.70;57.70;;;;;;5011807;28;20468;-46
2022/08/03 06:40:12;;;;;;;8.33;3.70;;;26.80;57.10;;;;;;5012032;28;20436;-47
2022/08/03 06:42:38;;;;;;;4.50;3.70;;;26.80;56.90;;;;;;5012228;28;20458;-46
2022/08/03 06:45:07;;;;;;;8.30;3.57;;;26.90;56.80;;;;;;5012253;28;20787;-47
2022/08/03 06:47:34;;;;;;;5.37;3.63;;;26.90;56.70;;;;;;4997888;28;20480;-46
2022/08/03 06:50:01;;;;;;;7.90;3.60;;;26.90;56.40;;;;;;5015665;28;20429;-46
2022/08/03 06:52:29;;;;;;;7.67;3.10;;;26.90;56.30;;;;;;5016628;28;20948;-45
2022/08/03 06:54:55;;;;;;;10.53;3.90;;;27.00;56.40;;;;;;5016042;28;20434;-46
2022/08/03 06:57:22;;;;;;;4.73;3.63;;;27.00;56.40;;;;;;5015644;28;20456;-46
2022/08/03 06:59:49;;;;;;;7.50;3.30;;;27.00;56.60;;;;;;5015347;28;20466;-47
2022/08/03 07:02:17;;;;;;;8.80;5.57;;;27.10;56.50;;;;;;5015373;28;20447;-46
2022/08/03 07:04:44;;;;;;;8.30;3.50;;;27.10;56.20;;;;;;5015724;28;20442;-46
2022/08/03 07:07:10;;;;;;;5.87;3.90;;;27.10;56.20;;;;;;5015664;28;20495;-46
2022/08/03 07:09:38;;;;;;;10.13;2.70;;;27.10;56.00;;;;;;5015572;28;20479;-46
2022/08/03 07:12:05;;;;;;;11.40;5.63;;;27.20;55.90;;;;;;5015341;28;20450;-47
2022/08/03 07:14:32;;;;;;;4.73;3.00;;;27.20;55.70;;;;;;5015486;28;20839;-47
2022/08/03 07:16:58;;;;;;;11.13;3.97;;;27.20;55.70;;;;;;4997804;28;20443;-46
2022/08/03 07:19:25;;;;;;;7.17;3.70;;;27.30;55.80;;;;;;5015376;28;20475;-46
2022/08/03 07:21:52;;;;;;;4.27;2.67;;;27.30;55.80;;;;;;5015513;28;20436;-46
2022/08/03 07:24:18;;;;;;;7.63;3.30;;;27.30;55.80;;;;;;5015024;28;20925;-47
2022/08/03 07:26:47;;;;;;;6.90;2.80;;;27.40;55.80;;;;;;5015015;28;20456;-46
2022/08/03 07:29:13;;;;;;;9.17;3.90;;;27.40;55.70;;;;;;5014490;28;20799;-48
2022/08/03 07:31:40;;;;;;;8.70;3.43;;;27.40;55.60;;;;;;5014807;28;20512;-47
2022/08/03 07:34:07;;;;;;;5.47;2.77;;;27.50;55.50;;;;;;5014847;28;20470;-46
2022/08/03 07:36:34;;;;;;;6.93;2.43;;;27.50;55.40;;;;;;5015740;28;20438;-46
2022/08/03 07:39:00;;;;;;;8.87;2.07;;;27.50;55.40;;;;;;5015433;28;20968;-47
2022/08/03 07:41:27;;;;;;;6.90;2.50;;;27.60;55.30;;;;;;5015402;28;20503;-46
2022/08/03 07:43:55;;;;;;;11.80;3.00;;;27.60;55.40;;;;;;5015516;28;20476;-47
2022/08/03 07:46:22;;;;;;;5.10;2.67;;;27.60;55.60;;;;;;5014945;28;20440;-46
2022/08/03 07:48:48;;;;;;;5.73;2.60;;;27.70;55.40;;;;;;5014256;28;20487;-47
2022/08/03 07:51:15;;;;;;;8.73;2.20;;;27.70;55.10;;;;;;5014517;28;20440;-47
2022/08/03 07:53:41;;;;;;;12.90;3.00;;;27.80;55.00;;;;;;5014491;28;20445;-46
2022/08/03 07:56:08;;;;;;;5.27;2.67;;;27.80;54.80;;;;;;5014454;28;20925;-46
2022/08/03 07:58:36;;;;;;;8.60;2.50;;;27.80;54.70;;;;;;5013894;28;20997;-45
2022/08/03 08:01:03;;;;;;;4.80;2.70;;;27.90;54.60;;;;;;5014455;28;20438;-46
2022/08/03 08:03:30;;;;;;;5.93;2.60;;;27.90;54.40;;;;;;5014294;28;20436;-47
2022/08/03 08:05:57;;;;;;;5.27;2.43;;;27.90;54.30;;;;;;5014310;28;20468;-46
2022/08/03 08:08:23;;;;;;;7.53;2.90;;;27.90;54.20;;;;;;5013677;28;20503;-47
2022/08/03 08:10:50;;;;;;;9.27;3.23;;;28.00;54.10;;;;;;5014374;28;20434;-46
2022/08/03 08:13:17;;;;;;;7.00;3.07;;;28.00;54.30;;;;;;5014655;28;20879;-46
2022/08/03 08:15:43;;;;;;;5.70;2.10;;;28.00;54.00;;;;;;5013603;28;20868;-47
2022/08/03 08:18:11;;;;;;;6.40;2.93;;;28.00;53.50;;;;;;5014013;28;20573;-47
2022/08/03 08:20:38;;;;;;;9.87;2.40;;;28.10;53.60;;;;;;5013875;28;20880;-46
2022/08/03 08:23:07;;;;;;;3.60;2.27;;;28.10;53.40;;;;;;5013780;28;20501;-46
2022/08/03 08:25:34;;;;;;;4.73;3.70;;;28.10;53.20;;;;;;5014116;28;20435;-46
2022/08/03 08:28:02;;;;;;;4.57;2.70;;;28.10;53.40;;;;;;5013863;28;20872;-46
2022/08/03 08:30:29;;;;;;;5.83;1.90;;;28.10;53.10;;;;;;5013388;28;20465;-47
2022/08/03 08:32:56;;;;;;;6.37;3.10;;;28.20;52.60;;;;;;5013549;28;20446;-47
2022/08/03 08:35:25;;;;;;;8.13;2.30;;;28.30;52.50;;;;;;5013594;28;20565;-48
2022/08/03 08:37:52;;;;;;;9.33;2.23;;;28.30;52.20;;;;;;4996134;28;20467;-47
2022/08/03 08:40:21;;;;;;;7.07;2.40;;;28.30;52.10;;;;;;5013603;28;20447;-47
2022/08/03 08:42:48;;;;;;;6.53;2.40;;;28.40;52.20;;;;;;5013806;28;20526;-47
2022/08/03 08:45:14;;;;;;;6.10;3.33;;;28.40;52.10;;;;;;5013771;28;20454;-46
2022/08/03 08:47:45;;;;;;;6.97;3.00;;;28.40;52.00;;;;;;5013156;28;20477;-47
2022/08/03 08:50:12;;;;;;;6.10;2.23;;;28.50;51.30;;;;;;5013405;28;20438;-47
2022/08/03 08:52:41;;;;;;;5.00;2.30;;;28.50;51.30;;;;;;5013290;28;20458;-47
2022/08/03 08:55:10;;;;;;;6.13;3.87;;;28.50;51.40;;;;;;5011530;28;20470;-46
2022/08/03 08:57:41;;;;;;;9.70;3.50;;;28.50;51.20;;;;;;5013271;28;20585;-47
2022/08/03 09:00:12;;;;;;;4.73;2.83;;;28.60;51.40;;;;;;5012501;28;20440;-47
2022/08/03 09:02:41;;;;;;;3.03;2.23;;;28.60;51.50;;;;;;5012859;28;20451;-46
2022/08/03 09:05:10;;;;;;;4.20;2.23;;;28.60;51.50;;;;;;5013095;28;20532;-47
2022/08/03 09:07:37;;;;;;;4.73;2.20;;;28.50;51.00;;;;;;5013063;28;20502;-46
2022/08/03 09:10:06;;;;;;;4.13;2.37;;;28.70;51.10;;;;;;5011877;28;21173;-46
2022/08/03 09:12:37;;;;;;;3.67;2.33;;;28.70;51.00;;;;;;5012943;28;20444;-46
2022/08/03 09:15:17;;;;;;;4.57;2.33;;;28.70;51.10;;;;;;5012913;28;20815;-47
2022/08/03 09:17:43;;;;;;;5.43;2.23;;;28.80;51.20;;;;;;5012946;28;20514;-46
2022/08/03 09:20:11;;;;;;;3.67;2.40;;;28.80;51.30;;;;;;5012421;28;20440;-47
2022/08/03 09:22:52;;;;;;;5.10;2.20;;;28.80;50.90;;;;;;5012863;28;20452;-48
2022/08/03 09:25:26;;;;;;;8.50;3.20;;;28.90;50.50;;;;;;5012567;28;20534;-47
2022/08/03 09:27:52;;;;;;;9.13;2.43;;;28.90;50.80;;;;;;5012168;28;20495;-46
2022/08/03 09:30:20;;;;;;;5.83;2.27;;;28.90;50.80;;;;;;5011719;28;20444;-47
2022/08/03 09:32:47;;;;;;;2.67;1.83;;;28.90;50.50;;;;;;5012325;28;20441;-47
2022/08/03 09:35:14;;;;;;;4.10;2.40;;;28.90;50.40;;;;;;5012557;28;20439;-46
2022/08/03 09:37:40;;;;;;;2.50;1.87;;;28.90;50.40;;;;;;5012347;28;20504;-46
2022/08/03 09:40:08;;;;;;;3.80;2.17;;;28.90;50.40;;;;;;5011936;28;20432;-46
2022/08/03 09:42:37;;;;;;;3.03;2.50;;;29.00;50.20;;;;;;5012464;28;20452;-46
2022/08/03 09:45:05;;;;;;;3.70;1.97;;;29.00;50.00;;;;;;5012179;28;20432;-46
2022/08/03 09:47:35;;;;;;;4.87;2.87;;;29.00;50.00;;;;;;5012388;28;20880;-46
2022/08/03 09:50:05;;;;;;;4.40;2.33;;;29.10;50.00;;;;;;5011788;28;20483;-46
2022/08/03 09:52:34;;;;;;;4.10;2.10;;;29.10;49.90;;;;;;5012150;28;20440;-46
2022/08/03 09:55:02;;;;;;;2.47;2.00;;;29.10;49.60;;;;;;5011784;28;20456;-47
2022/08/03 09:57:30;;;;;;;4.13;2.40;;;29.10;49.70;;;;;;5012472;28;20501;-48
2022/08/03 10:00:10;;;;;;;5.77;2.10;;;29.10;49.60;;;;;;5012002;28;20941;-48
2022/08/03 10:02:41;;;;;;;2.23;1.70;;;29.20;49.40;;;;;;5012053;28;20468;-46
2022/08/03 10:05:09;;;;;;;5.20;2.60;;;29.20;49.50;;;;;;5011832;28;20444;-47
2022/08/03 10:07:43;;;;;;;4.07;2.50;;;29.20;49.60;;;;;;5012684;28;20490;-47
2022/08/03 10:10:10;;;;;;;6.73;2.53;;;29.30;49.80;;;;;;5011404;28;20501;-47
2022/08/03 10:12:37;;;;;;;8.40;2.50;;;29.30;49.60;;;;;;5011701;28;20809;-45
2022/08/03 10:15:07;;;;;;;3.53;2.10;;;29.30;49.60;;;;;;5011805;28;20467;-46
2022/08/03 10:17:34;;;;;;;5.43;1.97;;;29.30;49.70;;;;;;5011736;28;20474;-47
2022/08/03 10:20:02;;;;;;;4.50;1.90;;;29.30;49.50;;;;;;5011238;28;20952;-46
2022/08/03 10:22:32;;;;;;;2.13;1.90;;;29.30;49.40;;;;;;5011481;28;20448;-47
2022/08/03 10:25:00;;;;;;;3.97;2.87;;;29.40;49.50;;;;;;5011529;28;20451;-47
2022/08/03 10:27:31;;;;;;;3.27;2.20;;;29.40;49.70;;;;;;5011368;28;20462;-47
2022/08/03 10:30:02;;;;;;;7.80;3.10;;;29.40;49.50;;;;;;5011324;28;20437;-47
2022/08/03 10:32:34;;;;;;;4.27;2.03;;;29.50;49.50;;;;;;5011851;28;20472;-46
2022/08/03 10:35:04;;;;;;;2.40;2.10;;;29.50;49.00;;;;;;5011153;28;20432;-46
2022/08/03 10:37:36;;;;;;;2.40;2.07;;;29.60;49.20;;;;;;5011447;28;20456;-45
2022/08/03 10:40:04;;;;;;;5.40;2.07;;;29.50;49.10;;;;;;5011277;28;20452;-46
2022/08/03 10:42:31;;;;;;;4.90;2.30;;;29.60;49.00;;;;;;5011557;28;20977;-46
2022/08/03 10:45:04;;;;;;;4.70;2.60;;;29.60;49.40;;;;;;5011116;28;20432;-46
2022/08/03 10:47:34;;;;;;;3.70;2.47;;;29.60;49.30;;;;;;5011574;28;20543;-47
2022/08/03 10:50:01;;;;;;;3.33;1.60;;;29.70;49.00;;;;;;5011603;28;20506;-47
2022/08/03 10:52:28;;;;;;;4.83;2.20;;;29.70;48.60;;;;;;5011443;28;20528;-46
2022/08/03 10:57:43;;;;;;;4.83;1.83;;;29.70;48.60;;;;;;5011254;28;20557;-47
2022/08/03 11:00:10;;;;;;;3.47;1.57;;;29.80;48.40;;;;;;5010944;28;20436;-45
2022/08/03 11:03:05;;;;;;;3.23;2.30;;;29.80;48.50;;;;;;4993365;28;20456;-46
2022/08/03 11:05:34;;;;;;;2.97;2.60;;;29.80;48.20;;;;;;5011394;28;20448;-47
2022/08/03 11:08:34;;;;;;;5.07;2.60;;;29.90;48.30;;;;;;5011381;28;20574;-46
2022/08/03 11:11:23;;;;;;;4.33;2.30;;;29.90;48.10;;;;;;5011708;28;20506;-47
2022/08/03 11:13:57;;;;;;;5.33;2.70;;;29.90;48.10;;;;;;5011402;28;20443;-47
2022/08/03 11:16:27;;;;;;;5.97;2.10;;;30.00;48.20;;;;;;5011134;28;20440;-46
2022/08/03 11:19:00;;;;;;;2.50;1.77;;;30.00;48.70;;;;;;5010415;28;20444;-47
2022/08/03 11:22:06;;;;;;;4.67;2.40;;;30.00;48.00;;;;;;5011423;28;20432;-46
2022/08/03 11:25:00;;;;;;;6.00;2.33;;;30.10;47.50;;;;;;5006228;28;20464;-46
2022/08/03 11:27:32;;;;;;;4.70;2.27;;;30.10;47.50;;;;;;5011085;28;20464;-46
2022/08/03 11:30:00;;;;;;;2.40;1.90;;;30.10;47.70;;;;;;5010848;28;20492;-46
2022/08/03 11:32:53;;;;;;;3.93;2.23;;;30.10;47.70;;;;;;5012487;28;20432;-46
2022/08/03 11:35:23;;;;;;;3.63;2.50;;;30.20;47.50;;;;;;5014619;28;20441;-46
2022/08/03 11:38:07;;;;;;;5.90;2.23;;;30.30;47.50;;;;;;5014791;28;20467;-47
2022/08/03 11:40:39;;;;;;;2.80;2.03;;;30.30;47.00;;;;;;5014378;28;20451;-47
2022/08/03 11:43:07;;;;;;;3.23;2.33;;;30.30;47.30;;;;;;5014225;28;20877;-46
2022/08/03 11:45:34;;;;;;;5.67;2.17;;;30.40;47.60;;;;;;5014687;28;20440;-46
2022/08/03 11:48:13;;;;;;;3.73;2.50;;;30.40;47.20;;;;;;5014188;28;20566;-46
2022/08/03 11:50:43;;;;;;;3.90;2.40;;;30.50;47.10;;;;;;5014378;28;21100;-45
2022/08/03 11:53:14;;;;;;;7.03;2.40;;;30.50;47.10;;;;;;5014248;28;20480;-47
2022/08/03 11:55:43;;;;;;;2.83;1.93;;;30.50;46.90;;;;;;5013929;28;20452;-47
2022/08/03 11:58:16;;;;;;;3.17;1.90;;;30.50;47.00;;;;;;5014086;28;20474;-47
2022/08/03 12:00:42;;;;;;;3.80;2.03;;;30.50;47.50;;;;;;5013750;28;20465;-46
2022/08/03 12:03:12;;;;;;;3.60;2.23;;;30.50;46.90;;;;;;5013829;28;20859;-46
2022/08/03 12:05:43;;;;;;;3.90;1.83;;;30.50;46.90;;;;;;5013873;28;20479;-46
2022/08/03 12:08:11;;;;;;;6.30;2.67;;;30.50;46.70;;;;;;5013769;28;20984;-46
2022/08/03 12:10:39;;;;;;;4.73;2.10;;;30.50;46.70;;;;;;5013679;28;20439;-46
2022/08/03 12:13:08;;;;;;;6.23;1.87;;;30.30;46.50;;;;;;5014021;28;20444;-45
2022/08/03 12:15:36;;;;;;;3.17;2.40;;;30.50;46.70;;;;;;5013865;28;20464;-46
2022/08/03 12:18:04;;;;;;;2.80;2.40;;;30.50;46.90;;;;;;5014095;28;20499;-47
2022/08/03 12:20:32;;;;;;;3.90;3.10;;;30.50;47.20;;;;;;5013721;28;20428;-47
2022/08/03 12:23:05;;;;;;;3.20;2.43;;;30.60;47.30;;;;;;5013712;28;20440;-47
2022/08/03 12:25:32;;;;;;;2.57;2.23;;;30.60;47.10;;;;;;5014281;28;20464;-46
2022/08/03 12:28:17;;;;;;;3.27;2.20;;;30.70;46.90;;;;;;5013730;28;20886;-46
2022/08/03 12:30:46;;;;;;;2.60;1.80;;;30.80;47.00;;;;;;5013594;28;20523;-47
2022/08/03 12:33:23;;;;;;;3.63;2.20;;;30.70;46.80;;;;;;5013736;28;20448;-45
2022/08/03 12:36:03;;;;;;;5.37;2.50;;;30.80;46.70;;;;;;5013604;28;20485;-46
2022/08/03 12:38:32;;;;;;;3.20;2.10;;;30.70;46.70;;;;;;5013341;28;20506;-46
2022/08/03 12:41:05;;;;;;;6.90;2.23;;;30.80;46.60;;;;;;5013562;28;20445;-47
2022/08/03 12:43:31;;;;;;;3.30;2.60;;;30.90;46.50;;;;;;5012089;28;20436;-46
2022/08/03 12:46:15;;;;;;;3.20;2.10;;;30.80;46.50;;;;;;5013188;28;20443;-47
2022/08/03 12:49:06;;;;;;;4.93;2.00;;;30.90;46.50;;;;;;5013027;28;20480;-45
2022/08/03 12:51:35;;;;;;;4.33;2.27;;;30.90;46.50;;;;;;5013272;28;20491;-47
2022/08/03 12:54:04;;;;;;;3.90;2.03;;;30.90;46.80;;;;;;4995204;28;20449;-47
2022/08/03 12:56:30;;;;;;;3.50;2.30;;;30.90;46.70;;;;;;4993673;28;20451;-46
2022/08/03 12:58:57;;;;;;;4.90;3.30;;;31.00;46.70;;;;;;4992815;28;20552;-47
2022/08/03 13:01:26;;;;;;;2.60;1.90;;;31.00;46.60;;;;;;4995093;28;20433;-46
2022/08/03 13:03:53;;;;;;;8.23;3.10;;;31.00;46.40;;;;;;5013019;28;20421;-46
2022/08/03 13:06:23;;;;;;;4.13;2.50;;;31.00;46.30;;;;;;5012726;28;20429;-46